Have a Safe July 4th! 

Flight Track Log - Related Links

Times and Time Zones

All times are in EDT time to prevent confusion due to time zone crossing. See the SWA2394 flight status page for this flight to view local times or setup timezone preferences in your user account.

Time Position Orientation Groundspeed Altitude Reporting Facility
EDT Latitude Longitude Course Direction KTS MPH feet Rate Location/Type
Mon 11:21:15 AM 29.5434 -98.4969 128° Southeast  Level FlightAware Approximate
Mon 11:22:15 AM 29.6358 -98.5429 149° Southeast  Level FlightAware Approximate
Mon 11:23:15 AM 29.7218 -98.6051 148° Southeast  Level FlightAware Approximate
Mon 11:24:15 AM 29.7955 -98.6861 145° Southeast  Level FlightAware Approximate
Mon 11:25:15 AM 29.8636 -98.7737 142° Southeast  Level FlightAware Approximate
Mon 11:26:15 AM 29.9322 -98.8610 140° Southeast  Level FlightAware Approximate
Mon 11:27:15 AM 29.9891 -98.9582 137° Southeast  Level FlightAware Approximate
Mon 11:28:15 AM 30.0181 -99.0712 133° Southeast  Level FlightAware Approximate
Mon 11:29:15 AM 30.1064 -99.1273 135° Southeast  Level FlightAware Approximate
Mon 11:30:15 AM 30.1674 -99.2217 134° Southeast  Level FlightAware Approximate
Mon 11:31:15 AM 30.2390 -99.3057 134° Southeast  Level FlightAware Approximate
Mon 11:31:47 AM 29.5206 -98.4628 133° Southeast 153 176 1,700  Level Houston Center
Mon 11:32:53 AM 29.4814 -98.4147 246° West 212 244 4,300 3,027 Climbing Houston Center
Mon 11:33:38 AM 29.4669 -98.4519 320° Northwest 249 287 7,300 3,371 Climbing Houston Center
Mon 11:34:38 AM 29.5286 -98.5108 325° Northwest 299 344 10,200 2,319 Climbing Houston Center
Mon 11:35:37 AM 29.5908 -98.5603 324° Northwest 337 388 11,900 2,672 Climbing Houston Center
Mon 11:36:37 AM 29.6789 -98.6331 305° West 351 404 15,500 2,975 Climbing Houston Center
Mon 11:37:38 AM 29.7308 -98.7178 316° Northwest 351 404 17,900 2,700 Climbing Houston Center
Mon 11:38:37 AM 29.8136 -98.8097 318° Northwest 368 423 20,900 2,300 Climbing Houston Center
Mon 11:39:38 AM 29.8886 -98.8867 317° Northwest 392 451 22,500 2,083 Climbing Houston Center
Mon 11:40:38 AM 29.9833 -98.9892 319° Northwest 417 480 25,100 2,150 Climbing Houston Center
Mon 11:41:38 AM 30.0644 -99.0717 304° West 427 491 26,800 1,765 Climbing Houston Center
Mon 11:42:37 AM 30.1386 -99.1992 286° West 428 493 28,600 1,916 Climbing Houston Center
Mon 11:43:37 AM 30.1728 -99.3339 287° West 428 493 30,600 2,182 Climbing Houston Center
Mon 11:44:38 AM 30.2069 -99.4658 288° West 434 499 33,000 1,983 Climbing Houston Center
Mon 11:45:38 AM 30.2431 -99.5983 286° West 434 499 34,600 1,550 Climbing Houston Center
Mon 11:46:38 AM 30.2750 -99.7258 283° West 428 493 36,100 1,450 Climbing Houston Center
Mon 11:47:38 AM 30.2972 -99.8403 287° West 419 482 37,500 950 Climbing Houston Center
Mon 11:48:38 AM 30.3347 -99.9803 287° West 414 476 38,000 250 Climbing Houston Center
Mon 11:49:38 AM 30.3650 -100.0933 288° West 414 476 38,000  Level Houston Center
Mon 11:50:38 AM 30.4008 -100.2214 286° West 414 476 38,000  Level Houston Center
Mon 11:51:38 AM 30.4322 -100.3492 288° West 414 476 38,000  Level Houston Center
Mon 11:54:38 AM 30.5347 -100.7261 286° West 414 476 38,000  Level Houston Center
Mon 11:55:38 AM 30.5656 -100.8517 284° West 414 476 38,000  Level Houston Center
Mon 11:56:38 AM 30.5942 -100.9819 288° West 409 471 38,000  Level Houston Center
Mon 11:57:38 AM 30.6294 -101.1056 286° West 409 471 38,000  Level Houston Center
Mon 11:58:38 AM 30.6619 -101.2339 287° West 409 471 38,000  Level Houston Center
Mon 11:59:38 AM 30.6947 -101.3600 287° West 409 471 38,000  Level Houston Center
Mon 12:00:37 PM 30.7272 -101.4861 286° West 409 471 38,000  Level Houston Center
Mon 12:01:38 PM 30.7575 -101.6119 284° West 409 471 38,000  Level Houston Center
Mon 12:02:38 PM 30.7836 -101.7375 286° West 409 471 38,000  Level Houston Center
Mon 12:04:29 PM 30.8464 -101.9928 286° West 410 472 38,000  Level Albuquerque Center
Mon 12:05:29 PM 30.8769 -102.1189 286° West 415 478 38,000  Level Albuquerque Center
Mon 12:06:29 PM 30.9100 -102.2522 286° West 420 483 38,000  Level Albuquerque Center
Mon 12:07:29 PM 30.9425 -102.3833 285° West 420 483 38,000  Level Albuquerque Center
Mon 12:08:29 PM 30.9728 -102.5147 286° West 425 489 38,000  Level Albuquerque Center
Mon 12:09:29 PM 31.0053 -102.6483 286° West 430 495 38,000  Level Albuquerque Center
Mon 12:10:29 PM 31.0375 -102.7822 286° West 430 495 38,000  Level Albuquerque Center
Mon 12:11:29 PM 31.0647 -102.8969 286° West 425 489 38,000  Level Albuquerque Center
Mon 12:12:29 PM 31.0967 -103.0286 285° West 425 489 38,000  Level Albuquerque Center
Mon 12:13:29 PM 31.1264 -103.1603 285° West 425 489 38,000  Level Albuquerque Center
Mon 12:14:29 PM 31.1558 -103.2897 286° West 425 489 38,000  Level Albuquerque Center
Mon 12:15:29 PM 31.1872 -103.4192 285° West 425 489 38,000  Level Albuquerque Center
Mon 12:16:29 PM 31.2186 -103.5536 286° West 425 489 38,000  Level Albuquerque Center
Mon 12:17:29 PM 31.2497 -103.6833 286° West 430 495 38,000  Level Albuquerque Center
Mon 12:18:29 PM 31.2833 -103.8253 284° West 430 495 38,000  Level Albuquerque Center
Mon 12:19:29 PM 31.3119 -103.9575 285° West 425 489 38,000  Level Albuquerque Center
Mon 12:20:29 PM 31.3428 -104.0900 286° West 425 489 38,000  Level Albuquerque Center
Mon 12:21:29 PM 31.3711 -104.2078 284° West 425 489 38,000  Level Albuquerque Center
Mon 12:22:29 PM 31.3994 -104.3381 284° West 425 489 38,000  Level Albuquerque Center
Mon 12:23:29 PM 31.4275 -104.4683 285° West 425 489 38,000  Level Albuquerque Center
Mon 12:24:29 PM 31.4578 -104.5986 284° West 420 483 38,000  Level Albuquerque Center
Mon 12:25:29 PM 31.4856 -104.7292 285° West 420 483 38,000  Level Albuquerque Center
Mon 12:26:30 PM 31.5156 -104.8622 284° West 420 483 38,000  Level Albuquerque Center
Mon 12:27:29 PM 31.5433 -104.9903 284° West 420 483 38,000  Level Albuquerque Center
Mon 12:28:29 PM 31.5708 -105.1211 285° West 415 478 38,000 250 Level Albuquerque Center
Mon 12:29:29 PM 31.6003 -105.2494 284° West 415 478 38,500 850 Climbing Albuquerque Center
Mon 12:30:29 PM 31.6272 -105.3756 283° West 410 472 39,700 750 Climbing Albuquerque Center
Mon 12:31:29 PM 31.6522 -105.5017 285° West 410 472 40,000 150 Climbing Albuquerque Center
Mon 12:32:29 PM 31.6814 -105.6328 284° West 410 472 40,000  Level Albuquerque Center
Mon 12:33:29 PM 31.7081 -105.7614 283° West 410 472 40,000  Level Albuquerque Center
Mon 12:34:29 PM 31.7328 -105.8878 285° West 410 472 40,000  Level Albuquerque Center
Mon 12:35:29 PM 31.7614 -106.0167 284° West 410 472 40,000  Level Albuquerque Center
Mon 12:36:29 PM 31.7878 -106.1456 285° West 410 472 40,000  Level Albuquerque Center
Mon 12:37:29 PM 31.8161 -106.2744 282° West 410 472 40,000  Level Albuquerque Center
Mon 12:38:29 PM 31.8400 -106.4036 284° West 410 472 40,000  Level Albuquerque Center
Mon 12:39:29 PM 31.8661 -106.5306 284° West 410 472 40,000  Level Albuquerque Center
Mon 12:40:29 PM 31.8919 -106.6572 284° West 410 472 40,000  Level Albuquerque Center
Mon 12:41:29 PM 31.9197 -106.7867 283° West 410 472 40,000  Level Albuquerque Center
Mon 12:42:29 PM 31.9453 -106.9161 283° West 410 472 40,000  Level Albuquerque Center
Mon 12:43:29 PM 31.9706 -107.0456 283° West 410 472 40,000  Level Albuquerque Center
Mon 12:44:29 PM 31.9958 -107.1750 283° West 410 472 40,000  Level Albuquerque Center
Mon 12:45:29 PM 32.0211 -107.3047 283° West 410 472 40,000  Level Albuquerque Center
Mon 12:46:29 PM 32.0461 -107.4369 283° West 410 472 40,000  Level Albuquerque Center
Mon 12:47:29 PM 32.0711 -107.5644 283° West 410 472 40,000  Level Albuquerque Center
Mon 12:48:29 PM 32.0978 -107.6967 282° West 410 472 40,000  Level Albuquerque Center
Mon 12:49:29 PM 32.1225 -107.8292 281° West 410 472 40,000  Level Albuquerque Center
Mon 12:50:29 PM 32.1447 -107.9639 283° West 410 472 40,000  Level Albuquerque Center
Mon 12:51:29 PM 32.1711 -108.0942 283° West 410 472 40,000  Level Albuquerque Center
Mon 12:52:29 PM 32.1972 -108.2242 282° West 410 472 40,000  Level Albuquerque Center
Mon 12:53:29 PM 32.2214 -108.3569 283° West 410 472 40,000  Level Albuquerque Center
Mon 12:54:29 PM 32.2492 -108.4997 283° West 410 472 40,000  Level Albuquerque Center
Mon 12:55:29 PM 32.2750 -108.6325 282° West 410 472 40,000  Level Albuquerque Center
Mon 12:56:29 PM 32.2967 -108.7508 282° West 410 472 40,000  Level Albuquerque Center
Mon 12:57:29 PM 32.3200 -108.8789 282° West 410 472 40,000  Level Albuquerque Center
Mon 12:58:29 PM 32.3433 -109.0069 281° West 410 472 40,000  Level Albuquerque Center
Mon 12:59:29 PM 32.3644 -109.1350 283° West 410 472 40,000  Level Albuquerque Center
Mon 01:00:29 PM 32.3897 -109.2633 283° West 410 472 40,000  Level Albuquerque Center
Mon 01:01:29 PM 32.4147 -109.3894 281° West 410 472 40,000  Level Albuquerque Center
Mon 01:02:29 PM 32.4353 -109.5203 282° West 410 472 40,000  Level Albuquerque Center
Mon 01:03:29 PM 32.4581 -109.6486 282° West 410 472 40,000  Level Albuquerque Center
Mon 01:04:29 PM 32.4825 -109.7797 283° West 410 472 40,000  Level Albuquerque Center
Mon 01:05:29 PM 32.5072 -109.9058 281° West 405 466 40,000  Level Albuquerque Center
Mon 01:06:29 PM 32.5272 -110.0319 282° West 405 466 40,000  Level Albuquerque Center
Mon 01:07:29 PM 32.5494 -110.1558 281° West 399 459 40,000  Level Albuquerque Center
Mon 01:08:29 PM 32.5714 -110.2869 283° West 399 459 40,000  Level Albuquerque Center
Mon 01:09:29 PM 32.5972 -110.4211 281° West 394 453 40,000  Level Albuquerque Center
Mon 01:10:29 PM 32.6189 -110.5522 286° West 394 453 40,000  Level Albuquerque Center
Mon 01:11:29 PM 32.6469 -110.6692 276° West 386 444 40,000  Level Albuquerque Center
Mon 01:12:29 PM 32.6581 -110.7931 281° West 392 451 40,000  Level Albuquerque Center
Mon 01:13:29 PM 32.6792 -110.9244 281° West 397 457 40,000  Level Albuquerque Center
Mon 01:14:29 PM 32.7006 -111.0511 281° West 397 457 40,000  Level Albuquerque Center
Mon 01:15:29 PM 32.7214 -111.1803 282° West 397 457 40,000  Level Albuquerque Center
Mon 01:16:29 PM 32.7444 -111.3097 280° West 392 451 40,000  Level Albuquerque Center
Mon 01:17:29 PM 32.7631 -111.4364 281° West 392 451 40,000 -400 Level Albuquerque Center
Mon 01:18:29 PM 32.7853 -111.5758 281° West 392 451 39,200 -850 Descending Albuquerque Center
Mon 01:19:29 PM 32.8058 -111.7028 281° West 392 451 38,300 -600 Descending Albuquerque Center
Mon 01:20:29 PM 32.8261 -111.8322 282° West 392 451 38,000 -150 Descending Albuquerque Center
Mon 01:21:29 PM 32.8483 -111.9594 280° West 392 451 38,000  Level Albuquerque Center
Mon 01:22:29 PM 32.8633 -112.0617 281° West 392 451 38,000  Level Albuquerque Center
Mon 01:23:29 PM 32.8850 -112.1986 280° West 392 451 38,000  Level Albuquerque Center
Mon 01:24:29 PM 32.9047 -112.3283 279° West 392 451 38,000  Level Albuquerque Center
Mon 01:25:29 PM 32.9222 -112.4581 281° West 392 451 38,000  Level Albuquerque Center
Mon 01:26:29 PM 32.9436 -112.5878 274° West 392 451 38,000  Level Albuquerque Center
Mon 01:27:29 PM 32.9506 -112.7169 263° West 392 451 38,000  Level Albuquerque Center
Mon 01:28:29 PM 32.9364 -112.8447 259° West 386 444 38,000 -350 Level Albuquerque Center
Mon 01:29:29 PM 32.9156 -112.9769 260° West 397 457 37,300 -850 Descending Albuquerque Center
Mon 01:30:29 PM 32.8969 -113.1067 261° West 403 464 36,300 -950 Descending Albuquerque Center
Mon 01:31:29 PM 32.8778 -113.2439 262° West 413 475 35,400 -950 Descending Albuquerque Center
Mon 01:32:29 PM 32.8606 -113.3808 260° West 419 482 34,400 -700 Descending Albuquerque Center
Mon 01:33:29 PM 32.8411 -113.5178 260° West 424 488 34,000 -124 Descending Albuquerque Center
Mon 01:35:42 PM 32.7972 -113.8208 260° West 429 494 34,000  Level Los Angeles Center
Mon 01:36:42 PM 32.7767 -113.9572 268° West 429 494 34,000  Level Los Angeles Center
Mon 01:37:42 PM 32.7728 -114.0933 269° West 429 494 34,000 -200 Level Los Angeles Center
Mon 01:38:42 PM 32.7708 -114.2317 270° West 423 487 33,600 -750 Descending Los Angeles Center
Mon 01:39:42 PM 32.7708 -114.3725 269° West 423 487 32,500 -1,050 Descending Los Angeles Center
Mon 01:40:42 PM 32.7686 -114.5133 269° West 423 487 31,500 -1,000 Descending Los Angeles Center
Mon 01:41:42 PM 32.7661 -114.6492 269° West 423 487 30,500 -1,000 Descending Los Angeles Center
Mon 01:42:42 PM 32.7636 -114.7875 268° West 423 487 29,500 -950 Descending Los Angeles Center
Mon 01:43:42 PM 32.7586 -114.9283 269° West 423 487 28,600 -1,000 Descending Los Angeles Center
Mon 01:44:42 PM 32.7558 -115.0617 269° West 423 487 27,500 -1,050 Descending Los Angeles Center
Mon 01:45:42 PM 32.7547 -115.1950 268° West 418 481 26,500 -1,000 Descending Los Angeles Center
Mon 01:46:42 PM 32.7514 -115.3283 268° West 418 481 25,500 -1,000 Descending Los Angeles Center
Mon 01:47:42 PM 32.7481 -115.4619 270° West 412 474 24,500 -1,000 Descending Los Angeles Center
Mon 01:48:42 PM 32.7486 -115.5903 272° West 406 467 23,500 -1,000 Descending Los Angeles Center
Mon 01:49:42 PM 32.7533 -115.7211 271° West 399 459 22,500 -1,300 Descending Los Angeles Center
Mon 01:50:42 PM 32.7558 -115.8469 272° West 394 453 20,900 -1,800 Descending Los Angeles Center
Mon 01:51:42 PM 32.7603 -115.9706 271° West 388 447 18,900 -2,000 Descending Los Angeles Center
Mon 01:52:42 PM 32.7625 -116.0914 271° West 378 435 16,900 -2,033 Descending Los Angeles Center
Mon 01:53:43 PM 32.7644 -116.2053 270° West 366 421 14,800 -2,000 Descending Los Angeles Center
Mon 01:54:42 PM 32.7642 -116.3164 259° West 355 409 12,900 -1,916 Descending Los Angeles Center
Mon 01:55:42 PM 32.7475 -116.4225 260° West 342 394 11,000 -1,488 Descending Los Angeles Center
Mon 01:56:43 PM 32.7303 -116.5361 261° West 330 380 9,900 -992 Descending Los Angeles Center
Mon 01:57:43 PM 32.7175 -116.6272 265° West 314 361 9,000 -1,109 Descending Los Angeles Center
Mon 01:58:42 PM 32.7108 -116.7136 268° West 284 327 7,700 -1,261 Descending Los Angeles Center
Mon 01:59:42 PM 32.7083 -116.7925 257° West 263 303 6,500 -1,150 Descending Los Angeles Center
Mon 02:00:42 PM 32.6933 -116.8714 255° West 251 289 5,400 -1,175 Descending Los Angeles Center
Mon 02:01:19 PM 32.6833 -116.9167 270° West 239 275 4,600 -1,109 Descending Southern California TRACON
Mon 02:02:14 PM 32.6833 -116.9833 292° West 204 235 3,700 -991 Descending Southern California TRACON
Mon 02:03:14 PM 32.7000 -117.0333 292° West 188 216 2,700 -942 Descending Southern California TRACON
Mon 02:04:15 PM 32.7167 -117.0833 270° West 145 167 1,800 -843 Descending Southern California TRACON
Mon 02:05:15 PM 32.7167 -117.1333 301° West 128 147 1,000 -694 Descending Southern California TRACON
Mon 02:06:16 PM 32.7333 -117.1667 301° West 131 151 400 -590 Descending Southern California TRACON

Login

Don't have an account? Register now (free) for customized features, flight alerts, and more!